Time;durP1;ratioP1;P1;durP2;ratioP2;P2;SDS_P1;SDS_P2;PMS_P1;PMS_P2;Temp;Humidity;BMP_temperature;BMP_pressure;BME280_temperature;BME280_humidity;BME280_pressure;Samples;Min_cycle;Max_cycle;Signal;HPM_P1;HPM_P2
2021/01/08 00:01:16;;;;;;;1.98;1.07;;;;;;;21.49;45.18;156783.66;1771273;80;21233;-76
2021/01/08 00:03:49;;;;;;;1.62;1.00;;;;;;;21.30;45.24;156732.03;1771789;80;21748;-77
2021/01/08 00:06:21;;;;;;;1.50;1.10;;;;;;;21.52;45.83;156790.25;1770992;80;21257;-78
2021/01/08 00:08:54;;;;;;;1.47;1.20;;;;;;;21.89;45.82;156889.56;1767996;80;21193;-76
2021/01/08 00:11:27;;;;;;;1.52;1.05;;;;;;;22.66;45.86;157093.56;1769155;80;21181;-77
2021/01/08 00:13:59;;;;;;;3.47;1.12;;;;;;;22.06;46.25;156935.89;1769643;80;21202;-77
2021/01/08 00:16:37;;;;;;;1.77;1.25;;;;;;;22.09;44.20;156943.84;1769541;80;21220;-77
2021/01/08 00:19:13;;;;;;;0.98;0.88;;;;;;;21.90;45.53;156893.56;1769445;80;21186;-77
2021/01/08 00:21:44;;;;;;;1.87;1.22;;;;;;;21.31;45.52;156735.98;1770140;80;21213;-77
2021/01/08 00:24:16;;;;;;;2.35;1.40;;;;;;;21.88;44.74;156886.91;1768492;80;21230;-75
2021/01/08 00:26:49;;;;;;;1.85;1.30;;;;;;;22.02;44.69;156923.98;1769556;80;21554;-78
2021/01/08 00:29:21;;;;;;;1.55;1.30;;;;;;;22.29;44.27;156995.50;1769181;80;22351;-78
2021/01/08 00:31:54;;;;;;;2.35;1.60;;;;;;;22.11;45.23;156947.81;1768554;80;21178;-78
2021/01/08 00:34:27;;;;;;;3.00;1.75;;;;;;;22.02;44.66;156923.98;1770605;79;21182;-78
2021/01/08 00:36:59;;;;;;;2.65;1.57;;;;;;;21.90;44.01;156892.22;1770070;80;21232;-79
2021/01/08 00:39:32;;;;;;;2.10;1.40;;;;;;;21.93;44.14;156900.16;1771628;81;21209;-76
2021/01/08 00:42:05;;;;;;;3.27;1.60;;;;;;;22.22;43.78;156976.98;1770892;80;21182;-78
2021/01/08 00:44:39;;;;;;;2.02;1.57;;;;;;;21.62;44.56;156818.11;1771572;80;21347;-77
2021/01/08 00:47:12;;;;;;;2.25;1.62;;;;;;;21.98;45.09;156914.72;1770207;80;21245;-78
2021/01/08 00:49:45;;;;;;;1.87;1.20;;;;;;;22.13;44.68;156953.11;1769706;81;21224;-75
2021/01/08 00:52:17;;;;;;;1.82;1.25;;;;;;;22.10;44.14;156945.20;1769479;81;21174;-80
2021/01/08 00:54:50;;;;;;;1.47;1.15;;;;;;;21.35;44.03;156746.59;1768816;81;21194;-78
2021/01/08 00:57:24;;;;;;;1.80;1.30;;;;;;;21.07;45.16;156672.47;1769471;80;21308;-79
2021/01/08 00:59:57;;;;;;;1.55;1.17;;;;;;;21.43;44.62;156766.44;1767698;81;21724;-79
2021/01/08 01:02:29;;;;;;;1.75;1.02;;;;;;;20.58;45.74;156541.50;1768706;81;21186;-77
2021/01/08 01:05:03;;;;;;;1.25;1.10;;;;;;;20.51;45.89;156521.66;1768525;80;21277;-77
2021/01/08 01:07:36;;;;;;;1.57;1.30;;;;;;;21.13;44.35;156688.38;1768066;81;21185;-78
2021/01/08 01:10:10;;;;;;;1.72;1.27;;;;;;;20.70;44.79;156571.94;1767370;81;21209;-76
2021/01/08 01:12:42;;;;;;;5.20;1.60;;;;;;;20.61;44.76;156549.44;1765647;81;21186;-79
2021/01/08 01:15:17;;;;;;;1.05;0.90;;;;;;;20.75;45.50;156586.48;1765237;81;21776;-75
2021/01/08 01:17:49;;;;;;;1.45;1.00;;;;;;;20.54;45.63;156530.89;1765744;80;21159;-74
2021/01/08 01:20:22;;;;;;;1.25;0.95;;;;;;;20.52;44.65;156525.66;1766446;81;21191;-79
2021/01/08 01:22:56;;;;;;;1.72;1.32;;;;;;;20.81;44.43;156601.08;1744697;81;21371;-79
2021/01/08 01:25:29;;;;;;;1.75;1.20;;;;;;;21.46;43.95;156775.69;1766427;81;21229;-79
2021/01/08 01:28:01;;;;;;;1.45;1.27;;;;;;;21.26;45.61;156721.44;1766819;81;21336;-78
2021/01/08 01:30:34;;;;;;;2.27;1.92;;;;;;;21.26;44.04;156722.78;1766503;81;21262;-78
2021/01/08 01:33:06;;;;;;;2.87;1.72;;;;;;;21.35;45.23;156745.28;1766408;81;21195;-78
2021/01/08 01:35:39;;;;;;;1.67;1.57;;;;;;;21.09;44.70;156677.78;1766579;81;21525;-78
2021/01/08 01:38:12;;;;;;;1.10;1.00;;;;;;;20.72;44.66;156578.53;1768280;81;21193;-79
2021/01/08 01:40:44;;;;;;;3.15;1.17;;;;;;;21.02;44.07;156657.92;1768735;81;21170;-78
2021/01/08 01:43:17;;;;;;;2.30;1.22;;;;;;;21.13;44.39;156687.03;1767380;80;21285;-79
2021/01/08 01:45:49;;;;;;;2.65;1.60;;;;;;;21.32;45.62;156737.33;1768188;81;21767;-76
2021/01/08 01:48:22;;;;;;;2.17;1.50;;;;;;;21.67;45.09;156831.33;1772679;80;21398;-79
2021/01/08 01:50:55;;;;;;;2.08;1.40;;;;;;;21.81;46.04;156867.09;1774476;80;21371;-78
2021/01/08 01:53:27;;;;;;;1.57;1.30;;;;;;;21.45;44.36;156773.05;1774197;80;21375;-75
2021/01/08 01:56:00;;;;;;;1.10;1.00;;;;;;;21.09;44.17;156676.47;1773711;81;21383;-77
2021/01/08 01:58:32;;;;;;;1.57;1.10;;;;;;;22.38;43.46;157019.38;1773881;80;21360;-78
2021/01/08 02:01:05;;;;;;;1.15;1.00;;;;;;;22.01;43.71;156921.33;1773476;80;21225;-77
2021/01/08 02:03:56;;;;;;;2.12;1.30;;;;;;;21.83;44.39;156875.00;1773702;80;22132;-78
2021/01/08 02:06:36;;;;;;;1.57;1.25;;;;;;;21.36;43.66;156747.89;1773280;80;21391;-77
2021/01/08 02:09:12;;;;;;;2.45;1.80;;;;;;;21.08;44.26;156675.12;1774223;80;21240;-78
2021/01/08 02:11:48;;;;;;;1.50;1.25;;;;;;;21.86;42.98;156882.95;1772266;80;21371;-81
2021/01/08 02:14:27;;;;;;;1.92;1.67;;;;;;;21.15;44.58;156693.67;1741776;81;21395;-79
2021/01/08 02:17:00;;;;;;;1.60;1.37;;;;;;;21.13;44.24;156688.38;1774921;81;21272;-79
2021/01/08 02:19:52;;;;;;;2.37;1.22;;;;;;;21.66;44.51;156828.67;1742456;81;21226;-73
2021/01/08 02:22:31;;;;;;;1.82;1.40;;;;;;;20.79;44.66;156595.78;1773415;81;21481;-77
2021/01/08 02:25:24;;;;;;;2.47;1.57;;;;;;;21.83;44.07;156873.69;1735112;82;21379;-74
2021/01/08 02:28:17;;;;;;;1.47;1.17;;;;;;;21.71;43.88;156840.58;1760562;81;21221;-72
2021/01/08 02:30:49;;;;;;;2.98;1.60;;;;;;;21.24;43.35;156717.48;1777474;80;21312;-73
2021/01/08 02:33:22;;;;;;;2.62;1.40;;;;;;;21.72;44.57;156844.58;1770326;81;21296;-72
2021/01/08 02:35:54;;;;;;;1.70;1.40;;;;;;;21.13;44.16;156688.38;1760366;81;21186;-72
2021/01/08 02:38:27;;;;;;;1.90;1.67;;;;;;;21.38;44.55;156754.53;1768021;81;21843;-71
2021/01/08 02:41:01;;;;;;;2.92;1.30;;;;;;;21.46;43.59;156775.69;1763615;81;21719;-70
2021/01/08 02:43:35;;;;;;;1.57;1.40;;;;;;;20.44;44.83;156503.16;1774449;81;21348;-70
2021/01/08 02:46:07;;;;;;;1.40;1.00;;;;;;;21.15;46.01;156693.67;1777449;81;21320;-73
2021/01/08 02:48:40;;;;;;;1.75;1.52;;;;;;;21.39;44.10;156755.84;1755157;80;21254;-72
2021/01/08 02:51:12;;;;;;;1.30;1.20;;;;;;;21.36;45.11;156747.89;1775043;81;21187;-72
2021/01/08 02:53:45;;;;;;;1.82;1.40;;;;;;;21.61;44.63;156815.47;1775142;81;21201;-73
2021/01/08 02:56:23;;;;;;;2.17;1.57;;;;;;;21.56;44.75;156800.86;1774207;81;21221;-71
2021/01/08 02:58:55;;;;;;;3.42;1.62;;;;;;;21.68;44.02;156833.97;1748590;80;21264;-73
2021/01/08 03:01:28;;;;;;;2.25;1.40;;;;;;;21.57;44.72;156804.86;1760277;81;21150;-72
2021/01/08 03:04:00;;;;;;;2.65;1.87;;;;;;;21.29;44.21;156729.38;1775239;81;21324;-72
2021/01/08 03:06:33;;;;;;;3.47;2.12;;;;;;;21.27;45.87;156725.44;1775134;81;21248;-72
2021/01/08 03:09:05;;;;;;;1.52;1.30;;;;;;;20.61;44.81;156548.09;1755954;81;21160;-73
2021/01/08 03:11:38;;;;;;;1.67;1.30;;;;;;;20.84;45.00;156608.97;1744415;82;21190;-72
2021/01/08 03:14:11;;;;;;;1.35;1.20;;;;;;;20.24;44.66;156450.28;1753948;81;21181;-73
2021/01/08 03:16:44;;;;;;;2.17;1.52;;;;;;;21.05;44.51;156667.22;1775149;81;21221;-71
2021/01/08 03:19:17;;;;;;;3.60;1.90;;;;;;;21.51;44.88;156788.95;1774936;81;21248;-71
2021/01/08 03:21:50;;;;;;;2.37;1.40;;;;;;;21.36;44.67;156747.89;1774995;81;21304;-71
2021/01/08 03:24:22;;;;;;;2.33;1.60;;;;;;;22.17;45.38;156963.72;1774131;81;21760;-72
2021/01/08 03:26:54;;;;;;;2.58;1.65;;;;;;;21.73;43.74;156845.88;1774942;81;21174;-73
2021/01/08 03:29:27;;;;;;;1.65;1.55;;;;;;;20.80;44.12;156599.73;1773454;81;21170;-72
2021/01/08 03:31:59;;;;;;;1.35;1.25;;;;;;;21.91;45.20;156896.22;1775294;81;21274;-73
2021/01/08 03:34:32;;;;;;;2.80;1.72;;;;;;;20.99;43.35;156651.31;1774714;81;21355;-71
2021/01/08 03:37:05;;;;;;;2.70;1.57;;;;;;;21.17;44.05;156697.63;1775335;81;21320;-72
2021/01/08 03:39:37;;;;;;;2.52;1.77;;;;;;;21.38;45.28;156753.19;1765847;81;21690;-72
2021/01/08 03:42:09;;;;;;;3.70;2.08;;;;;;;21.58;43.26;156806.20;1766371;81;21189;-73
2021/01/08 03:44:43;;;;;;;1.65;1.40;;;;;;;21.71;43.58;156840.58;1714827;82;21725;-73
2021/01/08 03:47:16;;;;;;;2.12;1.92;;;;;;;21.83;44.08;156873.69;1755506;81;21165;-73
2021/01/08 03:49:49;;;;;;;2.60;2.00;;;;;;;22.24;43.87;156983.59;1774478;81;21209;-72
2021/01/08 03:52:21;;;;;;;3.15;2.15;;;;;;;21.67;42.91;156830.02;1774665;81;21196;-72
2021/01/08 03:54:53;;;;;;;3.65;2.20;;;;;;;22.11;44.19;156947.81;1774881;81;21230;-70
2021/01/08 03:57:26;;;;;;;4.10;2.37;;;;;;;21.99;42.82;156917.37;1773221;81;21268;-71
2021/01/08 03:59:58;;;;;;;3.00;2.02;;;;;;;21.98;43.92;156913.42;1774424;81;21340;-72
2021/01/08 04:02:30;;;;;;;3.77;2.10;;;;;;;22.57;43.11;157069.73;1774699;81;21272;-72
2021/01/08 04:05:03;;;;;;;2.83;1.98;;;;;;;21.26;43.47;156721.44;1774621;81;21162;-73
2021/01/08 04:07:36;;;;;;;2.83;2.05;;;;;;;21.96;43.63;156908.13;1774971;80;21244;-71
2021/01/08 04:10:09;;;;;;;2.52;1.80;;;;;;;22.28;44.71;156992.84;1774875;81;21170;-72
2021/01/08 04:12:41;;;;;;;2.50;1.62;;;;;;;22.35;42.70;157011.42;1774664;81;21324;-74
2021/01/08 04:15:13;;;;;;;3.22;2.12;;;;;;;22.34;42.79;157008.77;1774688;81;21174;-74
2021/01/08 04:17:46;;;;;;;2.15;1.90;;;;;;;22.56;44.33;157067.09;1774609;81;21232;-73
2021/01/08 04:20:18;;;;;;;3.08;2.33;;;;;;;21.79;43.29;156863.09;1744047;81;21241;-70
2021/01/08 04:22:51;;;;;;;2.45;1.82;;;;;;;22.02;43.90;156925.34;1744114;82;21312;-72
2021/01/08 04:25:23;;;;;;;3.72;2.22;;;;;;;22.04;42.86;156929.28;1743988;81;21180;-71
2021/01/08 04:27:56;;;;;;;3.60;2.45;;;;;;;22.21;43.92;156975.63;1744076;82;21190;-71
2021/01/08 04:30:28;;;;;;;6.10;2.65;;;;;;;22.33;42.55;157006.16;1744036;82;21213;-72
2021/01/08 04:33:01;;;;;;;3.12;2.12;;;;;;;21.77;42.51;156856.48;1744207;82;21205;-72
2021/01/08 04:35:33;;;;;;;3.65;1.80;;;;;;;22.26;43.24;156987.55;1744235;82;21184;-72
2021/01/08 04:38:05;;;;;;;4.00;2.42;;;;;;;22.00;43.58;156918.69;1743978;82;21333;-70
2021/01/08 04:40:38;;;;;;;3.47;2.50;;;;;;;22.59;44.24;157076.34;1744185;82;21272;-72
2021/01/08 04:43:10;;;;;;;4.58;3.10;;;;;;;21.90;43.03;156893.56;1724075;82;21394;-71
2021/01/08 04:45:42;;;;;;;2.77;2.20;;;;;;;22.31;44.74;157000.81;1744231;81;21210;-72
2021/01/08 04:48:15;;;;;;;3.55;2.52;;;;;;;21.80;42.84;156864.44;1746417;81;21166;-72
2021/01/08 04:50:48;;;;;;;5.08;2.60;;;;;;;21.95;44.76;156906.77;1774571;81;21331;-72
2021/01/08 04:53:20;;;;;;;4.22;2.90;;;;;;;21.78;44.54;156860.44;1774830;81;21313;-72
2021/01/08 04:55:53;;;;;;;4.90;2.90;;;;;;;21.30;44.04;156733.33;1774922;81;21816;-72
2021/01/08 04:58:26;;;;;;;5.72;3.47;;;;;;;21.91;42.78;156894.86;1774680;81;21320;-72
2021/01/08 05:01:02;;;;;;;5.17;3.20;;;;;;;21.80;43.16;156865.75;1774618;81;21383;-72
2021/01/08 05:03:34;;;;;;;5.33;3.52;;;;;;;22.01;43.66;156922.69;1771010;81;21282;-72
2021/01/08 05:06:06;;;;;;;4.75;3.50;;;;;;;21.54;43.87;156796.84;1751709;80;21230;-71
2021/01/08 05:08:39;;;;;;;5.40;3.65;;;;;;;21.97;44.48;156910.78;1730836;82;21384;-72
2021/01/08 05:11:28;;;;;;;5.95;4.30;;;;;;;21.42;44.68;156765.09;1751849;82;21420;-72
2021/01/08 05:14:05;;;;;;;6.45;3.72;;;;;;;21.17;45.45;156698.97;1751752;80;21674;-72
2021/01/08 05:16:37;;;;;;;10.32;4.17;;;;;;;20.86;43.61;156614.28;1755629;81;21282;-71
2021/01/08 05:19:10;;;;;;;7.22;4.37;;;;;;;21.97;43.18;156910.78;1744325;82;21359;-72
2021/01/08 05:21:42;;;;;;;8.93;4.25;;;;;;;21.65;43.59;156824.72;1744334;82;21265;-72
2021/01/08 05:24:16;;;;;;;9.90;5.33;;;;;;;21.74;42.45;156848.53;1744385;82;21390;-71
2021/01/08 05:26:48;;;;;;;11.53;5.87;;;;;;;21.65;43.27;156826.02;1715607;82;21198;-71
2021/01/08 05:29:21;;;;;;;10.13;5.33;;;;;;;22.21;42.54;156974.33;1744181;82;21808;-71
2021/01/08 05:31:53;;;;;;;8.75;5.22;;;;;;;22.04;43.17;156929.28;1744985;81;21367;-72
2021/01/08 05:34:30;;;;;;;9.48;5.25;;;;;;;22.50;44.59;157052.52;1755827;81;21266;-73
2021/01/08 05:37:03;;;;;;;7.87;4.92;;;;;;;22.13;43.12;156953.11;1751857;82;21231;-71
2021/01/08 05:39:35;;;;;;;11.15;5.35;;;;;;;21.86;43.72;156882.95;1730820;82;21195;-71
2021/01/08 05:42:08;;;;;;;10.30;5.03;;;;;;;22.04;43.44;156929.28;1731557;81;21242;-70
2021/01/08 05:44:40;;;;;;;10.90;6.17;;;;;;;21.32;43.97;156738.63;1731330;82;21872;-71
2021/01/08 05:47:13;;;;;;;11.25;5.40;;;;;;;21.72;43.45;156843.23;1755098;81;21206;-73
2021/01/08 05:49:48;;;;;;;10.23;5.87;;;;;;;21.67;44.49;156831.33;1775056;81;21213;-72
2021/01/08 05:52:20;;;;;;;8.80;5.30;;;;;;;22.03;42.81;156926.62;1776281;81;21894;-73
2021/01/08 05:54:52;;;;;;;11.97;6.40;;;;;;;22.00;44.58;156918.69;1746393;81;21268;-72
2021/01/08 05:57:25;;;;;;;10.05;5.45;;;;;;;21.80;44.24;156865.75;1770853;80;21201;-72
2021/01/08 05:59:58;;;;;;;12.20;6.67;;;;;;;20.86;43.90;156615.63;1770906;80;21195;-72
2021/01/08 06:02:31;;;;;;;12.78;6.95;;;;;;;21.46;43.15;156775.69;1772156;81;21559;-72
2021/01/08 06:05:06;;;;;;;12.90;6.70;;;;;;;21.71;44.75;156840.58;1756657;81;21365;-72
2021/01/08 06:07:39;;;;;;;12.30;6.35;;;;;;;21.36;43.55;156749.23;1756703;81;21896;-71
2021/01/08 06:10:13;;;;;;;14.58;6.42;;;;;;;20.92;43.99;156630.17;1756704;81;21381;-71
2021/01/08 06:12:45;;;;;;;14.28;7.35;;;;;;;21.76;44.35;156853.84;1756664;80;21191;-72
2021/01/08 06:15:18;;;;;;;13.75;7.17;;;;;;;21.96;43.68;156909.42;1756766;80;21203;-72
2021/01/08 06:17:50;;;;;;;15.03;8.13;;;;;;;21.53;43.20;156794.20;1756177;81;21321;-72
2021/01/08 06:20:23;;;;;;;14.10;7.62;;;;;;;21.57;44.36;156804.86;1699277;82;21369;-71
2021/01/08 06:22:55;;;;;;;15.43;7.58;;;;;;;21.41;43.06;156761.14;1755149;82;21223;-71
2021/01/08 06:25:28;;;;;;;15.32;7.65;;;;;;;21.37;42.83;156750.53;1755091;82;21373;-70
2021/01/08 06:28:03;;;;;;;15.38;8.05;;;;;;;21.77;43.57;156856.48;1755134;82;21365;-73
2021/01/08 06:30:35;;;;;;;21.35;8.70;;;;;;;22.36;42.98;157014.06;1754955;82;21188;-71
2021/01/08 06:33:09;;;;;;;14.58;8.20;;;;;;;22.55;42.51;157064.44;1755350;81;21356;-72
2021/01/08 06:35:41;;;;;;;17.48;8.93;;;;;;;21.55;43.26;156798.20;1755223;82;21318;-73
2021/01/08 06:38:13;;;;;;;19.02;9.23;;;;;;;21.30;44.63;156732.03;1755202;82;21243;-72
2021/01/08 06:40:50;;;;;;;17.30;8.95;;;;;;;21.03;43.76;156661.92;1746840;82;21187;-71
2021/01/08 06:43:22;;;;;;;22.35;9.15;;;;;;;21.52;43.22;156791.59;1755091;82;21207;-72
2021/01/08 06:45:55;;;;;;;18.20;8.85;;;;;;;22.00;42.82;156918.69;1741426;80;21168;-73
2021/01/08 06:48:27;;;;;;;18.48;9.13;;;;;;;21.83;42.71;156875.00;1783208;80;21877;-71
2021/01/08 06:51:04;;;;;;;21.57;9.73;;;;;;;21.70;43.01;156839.28;1782949;80;21188;-73
2021/01/08 06:53:36;;;;;;;19.85;10.25;;;;;;;21.81;43.43;156868.39;1776654;80;21330;-72
2021/01/08 06:56:09;;;;;;;18.67;8.55;;;;;;;21.73;44.31;156845.88;1772200;81;21761;-72
2021/01/08 06:58:41;;;;;;;22.10;9.63;;;;;;;21.43;44.18;156767.73;1751478;81;21215;-71
2021/01/08 07:01:13;;;;;;;20.17;9.40;;;;;;;22.13;43.93;156954.47;1771406;81;21392;-74
2021/01/08 07:03:46;;;;;;;24.60;11.03;;;;;;;21.50;43.84;156786.30;1752421;82;21488;-73
2021/01/08 07:06:18;;;;;;;18.57;9.50;;;;;;;21.87;42.58;156884.31;1729354;82;21230;-72
2021/01/08 07:08:51;;;;;;;23.25;9.60;;;;;;;22.21;43.21;156974.33;1751953;82;21356;-72
2021/01/08 07:11:26;;;;;;;17.37;9.33;;;;;;;22.13;43.55;156953.11;1751691;82;21380;-73
2021/01/08 07:14:21;;;;;;;19.27;9.45;;;;;;;21.73;42.91;156845.88;1751757;82;21207;-70
2021/01/08 07:16:53;;;;;;;19.95;8.95;;;;;;;21.98;43.36;156913.42;1757351;81;21334;-68
2021/01/08 07:19:28;;;;;;;20.10;8.78;;;;;;;22.13;44.33;156953.11;1771744;81;22400;-77
2021/01/08 07:22:02;;;;;;;20.20;9.13;;;;;;;21.87;42.17;156884.31;1771160;80;21277;-68
2021/01/08 07:24:36;;;;;;;19.35;9.33;;;;;;;23.14;44.26;157222.12;1766934;81;21166;-68
2021/01/08 07:27:25;;;;;;;19.62;9.33;;;;;;;23.07;41.63;157203.59;1755783;81;21174;-69
2021/01/08 07:30:04;;;;;;;19.57;9.58;;;;;;;21.65;42.54;156826.02;1756802;80;21364;-69
2021/01/08 07:32:43;;;;;;;19.62;7.78;;;;;;;21.88;42.41;156888.25;1751409;82;21329;-68
2021/01/08 07:35:34;;;;;;;19.27;9.07;;;;;;;21.31;43.11;156735.98;1748088;81;21392;-69
2021/01/08 07:38:19;;;;;;;19.73;9.90;;;;;;;21.81;44.29;156868.39;1751286;82;21377;-69
2021/01/08 07:40:58;;;;;;;20.00;9.75;;;;;;;21.51;45.00;156787.59;1751284;81;21215;-74
2021/01/08 07:43:37;;;;;;;18.92;8.73;;;;;;;21.96;44.21;156909.42;1752239;81;21357;-74
2021/01/08 07:46:11;;;;;;;18.65;8.88;;;;;;;21.88;45.49;156886.91;1751746;82;21329;-73
2021/01/08 07:48:46;;;;;;;16.82;9.05;;;;;;;22.48;42.66;157045.86;1751553;82;21441;-74
2021/01/08 07:51:18;;;;;;;17.52;8.43;;;;;;;21.68;44.44;156833.97;1706105;81;21451;-74
2021/01/08 07:53:58;;;;;;;18.90;8.70;;;;;;;21.32;43.73;156738.63;1754166;80;21400;-74
2021/01/08 07:56:27;;;;;;;15.03;7.95;;;;;;;21.14;43.75;156691.03;1765021;81;21178;-74
2021/01/08 07:59:11;;;;;;;16.75;8.85;;;;;;;21.77;44.56;156856.48;1776600;81;21363;-74
2021/01/08 08:01:40;;;;;;;16.93;8.85;;;;;;;21.64;43.29;156823.42;1764321;80;21726;-73
2021/01/08 08:04:13;;;;;;;15.90;8.13;;;;;;;20.94;43.76;156638.12;1774857;81;21164;-74
2021/01/08 08:06:45;;;;;;;19.15;8.65;;;;;;;20.90;43.77;156626.17;1748151;81;21208;-73
2021/01/08 08:09:18;;;;;;;17.77;8.93;;;;;;;21.40;43.18;156758.48;1749819;81;21236;-73
2021/01/08 08:11:51;;;;;;;15.65;8.80;;;;;;;21.79;43.94;156861.78;1744654;82;21407;-73
2021/01/08 08:14:24;;;;;;;14.93;8.33;;;;;;;21.34;43.51;156742.64;1771643;80;21307;-73
2021/01/08 08:16:56;;;;;;;17.32;8.83;;;;;;;21.94;44.50;156902.81;1777067;81;21275;-74
2021/01/08 08:19:34;;;;;;;15.80;8.03;;;;;;;21.30;44.44;156733.33;1755968;80;21210;-76
2021/01/08 08:22:06;;;;;;;14.87;7.80;;;;;;;21.82;44.01;156869.69;1740076;82;21863;-76
2021/01/08 08:24:39;;;;;;;16.45;8.15;;;;;;;20.90;43.17;156624.88;1754116;80;21399;-75
2021/01/08 08:27:17;;;;;;;19.80;9.00;;;;;;;21.08;42.92;156673.81;1709946;82;21443;-75
2021/01/08 08:29:49;;;;;;;16.77;9.15;;;;;;;21.25;44.76;156718.78;1776633;81;21217;-72
2021/01/08 08:32:24;;;;;;;18.60;8.13;;;;;;;21.46;43.42;156774.39;1698427;84;21273;-75
2021/01/08 08:34:59;;;;;;;16.73;9.48;;;;;;;21.80;43.53;156865.75;1746240;81;21368;-74
2021/01/08 08:37:30;;;;;;;18.35;8.25;;;;;;;21.78;44.46;156860.44;1769060;81;21213;-74
2021/01/08 08:40:04;;;;;;;18.05;9.03;;;;;;;21.56;44.10;156800.86;1774896;81;21233;-75
2021/01/08 08:42:36;;;;;;;18.25;9.45;;;;;;;21.82;43.43;156871.05;1755884;81;21242;-74
2021/01/08 08:45:24;;;;;;;16.80;8.63;;;;;;;21.89;42.95;156890.91;1756028;81;21344;-74
2021/01/08 08:47:59;;;;;;;16.73;8.30;;;;;;;22.30;42.70;156999.45;1765980;80;21826;-74
2021/01/08 08:50:33;;;;;;;15.98;8.03;;;;;;;21.86;42.67;156881.66;1776632;81;21309;-74
2021/01/08 08:53:13;;;;;;;18.20;9.08;;;;;;;22.05;44.30;156933.25;1777061;81;21223;-75
2021/01/08 08:55:47;;;;;;;16.02;8.48;;;;;;;22.69;43.58;157102.83;1762957;80;21305;-73
2021/01/08 08:58:19;;;;;;;14.35;7.90;;;;;;;22.40;42.64;157024.69;1724124;82;21169;-74
2021/01/08 09:00:52;;;;;;;14.85;7.80;;;;;;;22.73;44.00;157112.09;1722452;82;21236;-75
2021/01/08 09:03:25;;;;;;;15.45;7.72;;;;;;;22.48;42.33;157045.86;1669500;84;21371;-75
2021/01/08 09:05:59;;;;;;;13.35;7.78;;;;;;;22.29;41.93;156995.50;1688102;85;21883;-75
2021/01/08 09:08:40;;;;;;;15.08;8.05;;;;;;;22.84;43.23;157143.89;1688248;85;21363;-75
2021/01/08 09:11:24;;;;;;;16.45;8.05;;;;;;;22.80;43.19;157133.28;1687941;85;21399;-74
2021/01/08 09:14:02;;;;;;;15.03;7.87;;;;;;;22.25;41.76;156984.89;1688078;84;21391;-76
2021/01/08 09:16:51;;;;;;;13.72;7.55;;;;;;;21.95;42.13;156906.77;1687982;85;21371;-75
2021/01/08 09:19:49;;;;;;;17.73;8.28;;;;;;;21.95;42.89;156905.47;1720146;82;21362;-73
2021/01/08 09:22:21;;;;;;;17.57;9.03;;;;;;;22.30;43.54;156999.45;1725154;83;21443;-74
2021/01/08 09:24:58;;;;;;;13.32;7.85;;;;;;;22.63;42.22;157086.91;1722532;83;21385;-74
2021/01/08 09:27:31;;;;;;;15.95;8.30;;;;;;;22.73;43.94;157113.45;1701520;83;21885;-73
2021/01/08 09:30:13;;;;;;;16.07;8.48;;;;;;;22.63;41.67;157086.91;1722521;83;21264;-74
2021/01/08 09:32:46;;;;;;;16.73;8.63;;;;;;;22.21;42.86;156975.63;1722662;83;21398;-75
2021/01/08 09:35:18;;;;;;;16.57;8.53;;;;;;;22.88;43.34;157153.16;1722766;83;21386;-74
2021/01/08 09:37:52;;;;;;;15.20;8.25;;;;;;;22.23;41.51;156979.58;1723548;82;22459;-75
2021/01/08 09:40:24;;;;;;;14.83;8.10;;;;;;;22.48;42.32;157045.86;1720917;83;21773;-74
2021/01/08 09:42:57;;;;;;;14.98;8.10;;;;;;;22.88;44.17;157154.50;1721186;83;21246;-75
2021/01/08 09:45:29;;;;;;;15.48;8.30;;;;;;;22.59;42.54;157076.34;1721174;83;21263;-77
2021/01/08 09:48:02;;;;;;;16.15;8.78;;;;;;;22.30;41.35;156999.45;1721180;83;21246;-76
2021/01/08 09:50:35;;;;;;;14.05;8.78;;;;;;;22.68;42.19;157098.88;1716782;83;21237;-76
2021/01/08 09:53:12;;;;;;;15.40;8.15;;;;;;;22.42;41.17;157030.00;1720650;82;22371;-76
2021/01/08 09:55:44;;;;;;;13.48;6.92;;;;;;;22.51;42.92;157053.81;1726689;80;21724;-75
2021/01/08 09:58:18;;;;;;;16.62;8.50;;;;;;;22.87;40.82;157150.50;1779685;80;21359;-73
2021/01/08 10:00:52;;;;;;;15.13;8.35;;;;;;;22.49;42.19;157049.86;1779703;80;21319;-74
2021/01/08 10:03:25;;;;;;;13.13;7.90;;;;;;;22.42;42.00;157030.00;1779547;80;21359;-70
2021/01/08 10:06:14;;;;;;;13.00;7.33;;;;;;;22.78;42.34;157125.36;1779559;80;21375;-70
2021/01/08 10:08:41;;;;;;;11.55;6.55;;;;;;;22.23;41.46;156979.58;1779081;80;21332;-69
2021/01/08 10:11:24;;;;;;;18.12;7.83;;;;;;;22.68;41.22;157098.88;1779635;80;21409;-69
2021/01/08 10:14:05;;;;;;;13.43;7.03;;;;;;;22.34;42.63;157008.77;1779201;80;21191;-69
2021/01/08 10:16:38;;;;;;;14.93;7.47;;;;;;;21.68;40.91;156833.97;1777490;80;21217;-69
2021/01/08 10:19:11;;;;;;;16.77;6.85;;;;;;;21.37;42.48;156751.89;1764958;80;21824;-69
2021/01/08 10:21:46;;;;;;;12.82;6.17;;;;;;;21.67;41.58;156830.02;1700389;84;21380;-69
2021/01/08 10:24:27;;;;;;;9.93;5.70;;;;;;;21.92;41.40;156898.86;1752653;80;21379;-69
2021/01/08 10:26:59;;;;;;;15.03;7.25;;;;;;;22.13;42.04;156953.11;1754341;80;21363;-69
2021/01/08 10:29:40;;;;;;;10.03;5.55;;;;;;;22.13;41.95;156953.11;1720094;83;21237;-69
2021/01/08 10:32:13;;;;;;;10.93;5.90;;;;;;;22.06;41.27;156935.89;1739962;81;21214;-69
2021/01/08 10:34:46;;;;;;;11.28;6.35;;;;;;;22.62;42.96;157082.95;1768374;80;21192;-70
2021/01/08 10:37:19;;;;;;;10.98;6.28;;;;;;;22.95;41.15;157173.03;1762095;80;21316;-69
2021/01/08 10:39:52;;;;;;;12.18;6.60;;;;;;;22.69;40.29;157101.47;1774776;81;21225;-69
2021/01/08 10:42:24;;;;;;;14.68;6.62;;;;;;;22.38;40.08;157019.38;1770216;80;21362;-69
2021/01/08 10:44:57;;;;;;;12.25;6.35;;;;;;;22.41;40.64;157028.64;1766868;80;21667;-69
2021/01/08 10:47:30;;;;;;;14.65;7.00;;;;;;;22.17;40.46;156965.03;1777223;80;21225;-68
2021/01/08 10:50:06;;;;;;;11.10;6.75;;;;;;;22.91;41.43;157161.12;1778254;80;21227;-68
2021/01/08 10:52:38;;;;;;;10.72;6.00;;;;;;;22.69;41.28;157101.47;1779775;80;21285;-69
2021/01/08 10:55:12;;;;;;;10.82;5.85;;;;;;;22.85;42.50;157146.55;1770577;80;21375;-69
2021/01/08 10:57:44;;;;;;;11.35;5.70;;;;;;;23.22;41.79;157244.66;1777218;80;21394;-69
2021/01/08 11:00:19;;;;;;;10.20;5.92;;;;;;;22.70;38.95;157105.48;1774287;81;21214;-69
2021/01/08 11:02:53;;;;;;;9.80;5.92;;;;;;;23.52;41.99;157324.16;1773860;81;21352;-70
2021/01/08 11:05:26;;;;;;;11.60;6.15;;;;;;;23.42;40.79;157296.36;1751917;81;21237;-70
2021/01/08 11:07:58;;;;;;;8.70;5.08;;;;;;;23.77;40.98;157390.50;1729921;82;21389;-69
2021/01/08 11:10:30;;;;;;;12.00;6.40;;;;;;;23.84;41.66;157410.41;1750984;82;21226;-70
2021/01/08 11:13:03;;;;;;;9.63;5.25;;;;;;;23.30;40.72;157264.55;1750673;80;21219;-70
2021/01/08 11:15:36;;;;;;;10.70;6.58;;;;;;;22.93;41.91;157167.72;1752262;80;21260;-70
2021/01/08 11:18:10;;;;;;;11.83;5.95;;;;;;;22.60;39.43;157079.00;1741421;82;22075;-70
2021/01/08 11:20:42;;;;;;;11.38;6.03;;;;;;;22.57;40.30;157071.03;1741930;82;21183;-70
2021/01/08 11:23:14;;;;;;;11.18;5.90;;;;;;;22.60;40.05;157077.66;1716367;82;21222;-70
2021/01/08 11:25:47;;;;;;;11.60;6.17;;;;;;;22.45;40.78;157039.25;1759365;81;21364;-69
2021/01/08 11:28:19;;;;;;;11.55;6.15;;;;;;;22.94;42.93;157170.38;1754775;81;21217;-70
2021/01/08 11:30:53;;;;;;;10.55;6.17;;;;;;;23.07;40.55;157204.89;1748987;82;21371;-69
2021/01/08 11:33:25;;;;;;;13.55;6.75;;;;;;;22.69;39.76;157101.47;1749437;82;21233;-70
2021/01/08 11:35:58;;;;;;;13.53;7.22;;;;;;;23.36;42.57;157281.78;1749200;82;21202;-69
2021/01/08 11:38:30;;;;;;;17.23;7.15;;;;;;;23.27;41.02;157256.58;1723507;82;21354;-70
2021/01/08 11:41:03;;;;;;;12.53;6.80;;;;;;;22.61;39.77;157080.30;1737233;82;21872;-73
2021/01/08 11:43:35;;;;;;;11.40;6.22;;;;;;;23.14;40.33;157222.12;1737742;82;21333;-69
2021/01/08 11:46:08;;;;;;;11.10;4.85;;;;;;;22.87;40.31;157151.84;1742008;81;21302;-69
2021/01/08 11:48:41;;;;;;;9.18;5.60;;;;;;;22.56;40.43;157068.39;1761142;80;21199;-69
2021/01/08 11:51:14;;;;;;;8.53;5.08;;;;;;;22.34;40.37;157010.13;1774722;81;21377;-70
2021/01/08 11:53:48;;;;;;;9.10;4.90;;;;;;;23.04;42.39;157196.88;1773273;81;21184;-69